createdAt,value
2022-08-22T00:01:32.573Z,29.10
2022-08-22T00:02:45.175Z,29.11
2022-08-22T00:04:15.636Z,29.08
2022-08-22T00:06:46.149Z,29.08
2022-08-22T00:09:29.604Z,29.07
2022-08-22T00:12:21.258Z,29.09
2022-08-22T00:15:42.313Z,29.11
2022-08-22T00:18:16.231Z,29.24
2022-08-22T00:20:57.000Z,29.25
2022-08-22T00:23:39.526Z,29.23
2022-08-22T00:26:17.141Z,29.22
2022-08-22T00:28:52.361Z,29.22
2022-08-22T00:31:32.413Z,29.22
2022-08-22T00:34:08.710Z,29.22
2022-08-22T00:36:53.774Z,29.21
2022-08-22T00:39:24.232Z,29.22
2022-08-22T00:42:13.645Z,29.21
2022-08-22T00:45:00.231Z,29.20
2022-08-22T00:47:44.719Z,29.21
2022-08-22T00:50:20.705Z,29.21
2022-08-22T00:53:08.095Z,29.20
2022-08-22T00:56:00.639Z,29.22
2022-08-22T00:59:17.957Z,29.21
2022-08-22T01:02:01.852Z,29.25
2022-08-22T01:05:06.149Z,29.25
2022-08-22T01:07:44.133Z,29.30
2022-08-22T01:10:27.664Z,29.27
2022-08-22T01:13:22.585Z,29.26
2022-08-22T01:15:53.880Z,29.32
2022-08-22T01:18:43.012Z,29.33
2022-08-22T01:21:36.137Z,29.30
2022-08-22T01:24:31.687Z,29.29
2022-08-22T01:27:32.344Z,29.29
2022-08-22T01:30:12.057Z,29.27
2022-08-22T01:33:11.338Z,29.25
2022-08-22T01:36:03.826Z,29.30
2022-08-22T01:39:10.141Z,29.33
2022-08-22T01:41:44.270Z,29.39
2022-08-22T01:44:35.906Z,29.38
2022-08-22T01:47:27.415Z,29.35
2022-08-22T01:50:10.564Z,29.36
2022-08-22T01:52:50.976Z,29.39
2022-08-22T01:55:30.388Z,29.37
2022-08-22T01:58:02.294Z,29.35
2022-08-22T02:00:35.926Z,29.34
2022-08-22T02:03:40.349Z,29.33
2022-08-22T02:06:14.499Z,29.39
2022-08-22T02:09:01.244Z,29.39
2022-08-22T02:11:40.908Z,29.37
2022-08-22T02:14:27.418Z,29.35
2022-08-22T02:16:58.765Z,29.36
2022-08-22T02:19:34.253Z,29.34
2022-08-22T02:22:07.994Z,29.34
2022-08-22T02:25:15.796Z,29.35
2022-08-22T02:27:55.293Z,29.36
2022-08-22T02:30:43.377Z,29.33
2022-08-22T02:33:23.934Z,29.37
2022-08-22T02:36:00.944Z,29.40
2022-08-22T02:38:39.668Z,29.40
2022-08-22T02:41:22.172Z,29.40
2022-08-22T02:43:57.018Z,29.40
2022-08-22T02:46:24.677Z,29.39
2022-08-22T02:49:43.812Z,29.37
2022-08-22T02:52:35.367Z,29.44
2022-08-22T02:55:20.134Z,29.49
2022-08-22T02:58:01.890Z,29.50
2022-08-22T03:00:42.056Z,29.49
2022-08-22T03:03:21.985Z,29.48
2022-08-22T03:05:52.119Z,29.45
2022-08-22T03:08:30.763Z,29.40
2022-08-22T03:11:21.236Z,29.40
2022-08-22T03:14:13.068Z,29.46
2022-08-22T03:16:58.613Z,29.45
2022-08-22T03:20:00.638Z,29.42
2022-08-22T03:22:37.642Z,29.42
2022-08-22T03:25:30.078Z,29.38
2022-08-22T03:28:04.356Z,29.37
2022-08-22T03:30:46.200Z,29.36
2022-08-22T03:33:18.320Z,29.36
2022-08-22T03:35:46.025Z,29.36
2022-08-22T03:38:33.086Z,29.36
2022-08-22T03:41:35.471Z,29.37
2022-08-22T03:44:12.248Z,29.38
2022-08-22T03:46:55.930Z,29.36
2022-08-22T03:49:35.348Z,29.35
2022-08-22T03:52:27.181Z,29.35
2022-08-22T03:55:15.889Z,29.38
2022-08-22T03:57:58.331Z,29.35
2022-08-22T04:00:57.166Z,29.34
2022-08-22T04:04:11.639Z,29.35
2022-08-22T04:06:42.509Z,29.39
2022-08-22T04:09:32.249Z,29.40
2022-08-22T04:12:34.159Z,29.39
2022-08-22T04:15:19.811Z,29.37
2022-08-22T04:18:05.539Z,29.34
2022-08-22T04:20:55.078Z,29.34
2022-08-22T04:23:31.548Z,29.34
2022-08-22T04:26:12.692Z,29.34
2022-08-22T04:28:45.601Z,29.34
2022-08-22T04:31:17.766Z,29.36
2022-08-22T04:34:12.523Z,29.36
2022-08-22T04:36:46.025Z,29.43
2022-08-22T04:39:22.822Z,29.41
2022-08-22T04:42:11.157Z,29.48
2022-08-22T04:44:54.568Z,29.53
2022-08-22T04:47:39.720Z,29.61
2022-08-22T04:50:15.424Z,29.60
2022-08-22T04:52:53.170Z,29.67
2022-08-22T04:55:46.641Z,29.84
2022-08-22T04:58:39.926Z,29.77
2022-08-22T05:01:07.560Z,29.70
2022-08-22T05:03:41.885Z,29.65
2022-08-22T05:06:16.209Z,29.59
2022-08-22T05:08:46.444Z,29.58
2022-08-22T05:11:23.178Z,29.93
2022-08-22T05:13:56.866Z,30.37
2022-08-22T05:16:30.724Z,30.69
2022-08-22T05:19:04.108Z,30.86
2022-08-22T05:21:35.586Z,31.08
2022-08-22T05:24:07.057Z,31.02
2022-08-22T05:26:43.341Z,30.70
2022-08-22T05:29:14.599Z,30.43
2022-08-22T05:31:49.488Z,30.21
2022-08-22T05:34:24.908Z,30.04
2022-08-22T05:36:57.706Z,29.95
2022-08-22T05:39:28.245Z,29.90
2022-08-22T05:42:02.423Z,29.83
2022-08-22T05:44:37.885Z,29.80
2022-08-22T05:47:14.928Z,29.73
2022-08-22T05:49:51.572Z,29.67
2022-08-22T05:52:29.011Z,29.64
2022-08-22T05:55:07.986Z,29.63
2022-08-22T05:57:39.645Z,29.60
2022-08-22T06:00:13.264Z,29.54
2022-08-22T06:03:08.296Z,29.50
2022-08-22T06:05:40.614Z,29.49
2022-08-22T06:08:18.009Z,29.49
2022-08-22T06:10:49.763Z,29.46
2022-08-22T06:13:32.568Z,29.47
2022-08-22T06:16:00.173Z,29.53
2022-08-22T06:18:29.380Z,29.62
2022-08-22T06:21:01.997Z,29.63
2022-08-22T06:23:37.003Z,29.63
2022-08-22T06:26:05.784Z,29.66
2022-08-22T06:28:55.125Z,29.75
2022-08-22T06:31:29.282Z,29.77
2022-08-22T06:34:09.230Z,29.76
2022-08-22T06:36:40.066Z,29.76
2022-08-22T06:39:11.484Z,29.75
2022-08-22T06:41:52.313Z,29.73
2022-08-22T06:44:30.000Z,29.78
2022-08-22T06:47:00.290Z,29.79
2022-08-22T06:49:29.617Z,29.78
2022-08-22T06:52:23.739Z,29.78
2022-08-22T06:55:00.219Z,29.84
2022-08-22T06:57:35.291Z,29.85
2022-08-22T07:00:10.939Z,29.85
2022-08-22T07:02:42.970Z,29.84
2022-08-22T07:05:17.631Z,29.87
2022-08-22T07:07:45.850Z,29.87
2022-08-22T07:10:15.844Z,29.85
2022-08-22T07:12:46.552Z,29.84
2022-08-22T07:15:34.541Z,29.84
2022-08-22T07:18:09.825Z,29.88
2022-08-22T07:20:42.129Z,29.91
2022-08-22T07:23:12.656Z,29.94
2022-08-22T07:25:59.846Z,29.92
2022-08-22T07:28:51.259Z,29.94
2022-08-22T07:31:46.733Z,29.96
2022-08-22T07:34:23.184Z,29.98
2022-08-22T07:37:03.681Z,29.97
2022-08-22T07:39:50.510Z,29.96
2022-08-22T07:42:35.685Z,30.00
2022-08-22T07:45:20.891Z,30.04
2022-08-22T07:48:06.824Z,30.06
2022-08-22T07:50:39.382Z,30.06
2022-08-22T07:53:34.053Z,30.03
2022-08-22T07:56:03.882Z,30.11
2022-08-22T07:58:34.079Z,30.11
2022-08-22T08:01:02.754Z,30.10
2022-08-22T08:03:31.480Z,30.09
2022-08-22T08:06:00.492Z,30.07
2022-08-22T08:08:35.042Z,30.05
2022-08-22T08:11:04.033Z,30.06
2022-08-22T08:13:38.275Z,30.06
2022-08-22T08:16:09.830Z,30.08
2022-08-22T08:18:39.344Z,30.10
2022-08-22T08:21:09.473Z,30.16
2022-08-22T08:23:42.083Z,30.13
2022-08-22T08:26:19.778Z,30.14
2022-08-22T08:28:51.601Z,30.14
2022-08-22T08:31:43.233Z,30.12
2022-08-22T08:34:21.062Z,30.15
2022-08-22T08:37:12.780Z,30.18
2022-08-22T08:39:49.024Z,30.19
2022-08-22T08:42:55.684Z,30.18
2022-08-22T08:45:40.603Z,30.25
2022-08-22T08:48:15.011Z,30.23
2022-08-22T08:50:45.700Z,30.21
2022-08-22T08:53:55.382Z,30.19
2022-08-22T08:56:23.059Z,30.23
2022-08-22T08:59:00.341Z,30.26
2022-08-22T09:01:43.393Z,30.22
2022-08-22T09:04:17.232Z,30.21
2022-08-22T09:07:09.764Z,30.18
2022-08-22T09:10:01.290Z,30.20
2022-08-22T09:13:12.762Z,30.19
2022-08-22T09:15:40.978Z,30.32
2022-08-22T09:18:31.293Z,30.34
2022-08-22T09:24:41.665Z,30.42
2022-08-22T09:27:29.232Z,30.37
2022-08-22T09:30:08.308Z,30.35
2022-08-22T09:32:56.923Z,30.37
2022-08-22T09:35:41.945Z,30.40
2022-08-22T09:38:28.535Z,30.41
2022-08-22T09:41:25.270Z,30.45
2022-08-22T09:43:52.913Z,30.48
2022-08-22T09:46:31.630Z,30.47
2022-08-22T09:49:14.530Z,30.49
2022-08-22T09:51:56.460Z,30.54
2022-08-22T09:54:31.075Z,30.53
2022-08-22T09:57:16.483Z,30.48
2022-08-22T10:00:12.993Z,30.52
2022-08-22T10:02:49.651Z,30.52
2022-08-22T10:05:45.528Z,30.57
2022-08-22T10:08:31.410Z,30.60
2022-08-22T10:11:07.079Z,30.59
2022-08-22T10:14:01.962Z,30.58
2022-08-22T10:17:01.924Z,30.57
2022-08-22T10:19:42.826Z,30.63
2022-08-22T10:22:30.170Z,30.55
2022-08-22T10:25:20.489Z,30.60
2022-08-22T10:28:10.433Z,30.96
2022-08-22T10:30:56.522Z,31.15
2022-08-22T10:33:29.308Z,30.95
2022-08-22T10:36:07.902Z,30.78
2022-08-22T10:38:50.595Z,30.69
2022-08-22T10:41:59.897Z,30.67
2022-08-22T10:44:55.138Z,30.65
2022-08-22T10:47:29.857Z,30.73
2022-08-22T10:50:10.794Z,31.15
2022-08-22T10:53:12.232Z,31.52
2022-08-22T10:55:40.919Z,31.85
2022-08-22T10:58:14.869Z,32.04
2022-08-22T11:01:00.506Z,32.21
2022-08-22T11:03:40.277Z,32.37
2022-08-22T11:06:15.455Z,32.04
2022-08-22T11:09:09.029Z,31.69
2022-08-22T11:11:44.444Z,31.45
2022-08-22T11:14:31.645Z,31.26
2022-08-22T11:17:30.998Z,31.15
2022-08-22T11:20:19.627Z,31.11
2022-08-22T11:23:06.497Z,31.04
2022-08-22T11:25:52.548Z,31.02
2022-08-22T11:28:28.841Z,30.96
2022-08-22T11:31:22.765Z,30.92
2022-08-22T11:34:16.374Z,30.89
2022-08-22T11:36:54.853Z,30.92
2022-08-22T11:39:28.914Z,30.93
2022-08-22T11:42:15.677Z,30.89
2022-08-22T11:44:57.261Z,30.90
2022-08-22T11:47:30.911Z,30.90
2022-08-22T11:50:10.722Z,30.91
2022-08-22T11:53:15.511Z,30.90
2022-08-22T11:55:53.202Z,30.89
2022-08-22T11:58:39.393Z,30.87
2022-08-22T12:01:23.660Z,30.88
2022-08-22T12:04:06.508Z,30.86
2022-08-22T12:06:47.004Z,30.87
2022-08-22T12:09:23.090Z,30.87
2022-08-22T12:11:59.649Z,30.87
2022-08-22T12:14:36.918Z,30.85
2022-08-22T12:17:10.689Z,30.88
2022-08-22T12:20:18.579Z,30.90
2022-08-22T12:22:52.649Z,30.97
2022-08-22T12:25:22.157Z,30.97
2022-08-22T12:28:20.444Z,30.98
2022-08-22T12:31:19.697Z,31.05
2022-08-22T12:33:58.764Z,31.08
2022-08-22T12:36:43.169Z,31.08
2022-08-22T12:39:32.412Z,31.16
2022-08-22T12:42:11.247Z,31.19
2022-08-22T12:45:07.543Z,31.20
2022-08-22T12:48:01.318Z,31.32
2022-08-22T12:51:03.681Z,31.34
2022-08-22T12:54:15.765Z,31.55
2022-08-22T12:57:01.694Z,31.49
2022-08-22T12:59:39.491Z,31.44
2022-08-22T13:02:20.582Z,31.37
2022-08-22T13:04:56.078Z,31.32
2022-08-22T13:07:32.990Z,31.28
2022-08-22T13:10:21.764Z,31.31
2022-08-22T13:12:53.314Z,31.40
2022-08-22T13:15:22.092Z,31.39
2022-08-22T13:17:54.875Z,31.40
2022-08-22T13:20:44.419Z,31.43
2022-08-22T13:23:16.889Z,31.51
2022-08-22T13:26:07.685Z,31.60
2022-08-22T13:29:24.458Z,31.61
2022-08-22T13:32:02.196Z,31.81
2022-08-22T13:34:40.531Z,31.85
2022-08-22T13:37:20.153Z,31.94
2022-08-22T13:39:57.892Z,31.97
2022-08-22T13:42:30.994Z,32.00
2022-08-22T13:45:04.592Z,32.00
2022-08-22T13:47:39.451Z,32.00
2022-08-22T13:50:14.965Z,31.97
2022-08-22T13:53:02.075Z,31.98
2022-08-22T13:55:44.481Z,32.08
2022-08-22T13:58:44.575Z,32.37
2022-08-22T14:01:37.872Z,32.28
2022-08-22T14:04:28.333Z,32.10
2022-08-22T14:07:02.902Z,31.94
2022-08-22T14:09:54.382Z,31.84
2022-08-22T14:12:24.553Z,31.75
2022-08-22T14:14:59.655Z,31.71
2022-08-22T14:17:44.151Z,31.59
2022-08-22T14:20:33.601Z,31.72
2022-08-22T14:23:08.842Z,31.84
2022-08-22T14:25:40.090Z,31.94
2022-08-22T14:28:19.735Z,32.05
2022-08-22T14:31:00.790Z,32.02
2022-08-22T14:33:35.609Z,31.87
2022-08-22T14:36:13.424Z,31.74
2022-08-22T14:38:47.029Z,31.64
2022-08-22T14:41:21.068Z,31.56
2022-08-22T14:43:57.336Z,31.57
2022-08-22T14:46:30.265Z,31.60
2022-08-22T14:49:13.648Z,31.54
2022-08-22T14:51:50.853Z,31.53
2022-08-22T14:54:22.133Z,31.51
2022-08-22T14:56:52.789Z,31.53
2022-08-22T14:59:33.326Z,31.47
2022-08-22T15:02:24.116Z,31.44
2022-08-22T15:04:53.674Z,31.46
2022-08-22T15:07:25.548Z,31.42
2022-08-22T15:09:58.817Z,31.41
2022-08-22T15:12:39.456Z,31.42
2022-08-22T15:15:16.908Z,31.48
2022-08-22T15:17:50.833Z,31.52
2022-08-22T15:20:36.385Z,31.51
2022-08-22T15:23:21.219Z,31.53
2022-08-22T15:26:07.598Z,31.48
2022-08-22T15:28:53.392Z,31.49
2022-08-22T15:31:22.358Z,31.49
2022-08-22T15:33:51.539Z,31.45
2022-08-22T15:36:25.265Z,31.37
2022-08-22T15:39:33.858Z,31.32
2022-08-22T15:42:03.315Z,31.34
2022-08-22T15:44:37.122Z,31.29
2022-08-22T15:47:27.081Z,31.22
2022-08-22T15:50:01.446Z,31.22
2022-08-22T15:52:32.290Z,31.18
2022-08-22T15:55:17.155Z,31.12
2022-08-22T15:57:52.189Z,31.09
2022-08-22T16:00:32.671Z,31.05
2022-08-22T16:03:05.338Z,31.02
2022-08-22T16:05:58.910Z,30.98
2022-08-22T16:08:41.212Z,30.99
2022-08-22T16:11:18.088Z,30.96
2022-08-22T16:13:46.658Z,30.93
2022-08-22T16:16:26.488Z,30.90
2022-08-22T16:18:54.336Z,30.86
2022-08-22T16:21:22.368Z,30.84
2022-08-22T16:23:50.084Z,30.80
2022-08-22T16:26:31.166Z,30.76
2022-08-22T16:29:13.616Z,30.74
2022-08-22T16:31:48.408Z,30.72
2022-08-22T16:34:16.474Z,30.71
2022-08-22T16:37:08.702Z,30.67
2022-08-22T16:40:03.481Z,30.64
2022-08-22T16:42:34.206Z,30.63
2022-08-22T16:45:14.436Z,30.61
2022-08-22T16:47:56.769Z,30.60
2022-08-22T16:50:40.917Z,30.61
2022-08-22T16:53:45.864Z,30.62
2022-08-22T16:56:20.075Z,30.65
2022-08-22T16:59:23.576Z,30.65
2022-08-22T17:02:06.231Z,30.66
2022-08-22T17:04:44.050Z,30.64
2022-08-22T17:07:21.517Z,30.62
2022-08-22T17:10:11.668Z,30.61
2022-08-22T17:12:58.212Z,30.59
2022-08-22T17:15:34.754Z,30.56
2022-08-22T17:18:11.708Z,30.52
2022-08-22T17:20:46.430Z,30.50
2022-08-22T17:23:33.523Z,30.49
2022-08-22T17:26:18.137Z,30.54
2022-08-22T17:29:04.622Z,30.57
2022-08-22T17:31:40.354Z,30.57
2022-08-22T17:34:26.267Z,30.58
2022-08-22T17:36:59.937Z,30.54
2022-08-22T17:39:46.278Z,30.53
2022-08-22T17:42:45.025Z,30.49
2022-08-22T17:45:12.706Z,30.49
2022-08-22T17:47:52.516Z,30.47
2022-08-22T17:50:41.825Z,30.46
2022-08-22T17:53:16.241Z,30.47
2022-08-22T17:56:01.071Z,30.48
2022-08-22T17:58:43.496Z,30.49
2022-08-22T18:01:16.186Z,30.47
2022-08-22T18:03:51.635Z,30.44
2022-08-22T18:06:19.318Z,30.43
2022-08-22T18:09:15.427Z,30.43
2022-08-22T18:11:45.349Z,30.51
2022-08-22T18:14:18.807Z,30.54
2022-08-22T18:16:48.887Z,30.49
2022-08-22T18:19:44.341Z,30.44
2022-08-22T18:22:19.312Z,30.41
2022-08-22T18:24:55.584Z,30.37
2022-08-22T18:27:34.724Z,30.35
2022-08-22T18:30:19.825Z,30.35
2022-08-22T18:32:51.545Z,30.34
2022-08-22T18:35:23.079Z,30.30
2022-08-22T18:38:19.129Z,30.29
2022-08-22T18:40:55.131Z,30.28
2022-08-22T18:43:31.709Z,30.28
2022-08-22T18:46:03.844Z,30.23
2022-08-22T18:48:54.389Z,30.21
2022-08-22T18:51:38.528Z,30.26
2022-08-22T18:54:11.132Z,30.29
2022-08-22T18:56:54.685Z,30.27
2022-08-22T18:59:46.878Z,30.25
2022-08-22T19:02:33.992Z,30.22
2022-08-22T19:05:24.456Z,30.21
2022-08-22T19:08:01.185Z,30.20
2022-08-22T19:10:51.413Z,30.18
2022-08-22T19:13:19.223Z,30.20
2022-08-22T19:15:55.996Z,30.19
2022-08-22T19:18:29.571Z,30.16
2022-08-22T19:21:43.952Z,30.14
2022-08-22T19:24:33.438Z,30.13
2022-08-22T19:27:07.232Z,30.14
2022-08-22T19:29:34.849Z,30.15
2022-08-22T19:32:05.865Z,30.12
2022-08-22T19:34:41.996Z,30.09
2022-08-22T19:37:32.554Z,30.09
2022-08-22T19:40:10.374Z,30.12
2022-08-22T19:42:40.143Z,30.12
2022-08-22T19:45:19.634Z,30.09
2022-08-22T19:48:10.517Z,30.09
2022-08-22T19:50:39.756Z,30.10
2022-08-22T19:53:19.705Z,30.11
2022-08-22T19:56:08.707Z,30.05
2022-08-22T19:58:36.473Z,30.02
2022-08-22T20:01:04.359Z,29.99
2022-08-22T20:03:51.517Z,29.98
2022-08-22T20:06:43.982Z,29.98
2022-08-22T20:09:45.212Z,29.99
2022-08-22T20:12:36.835Z,30.04
2022-08-22T20:15:17.193Z,30.09
2022-08-22T20:18:11.620Z,30.09
2022-08-22T20:20:38.522Z,30.11
2022-08-22T20:23:13.899Z,30.10
2022-08-22T20:25:45.142Z,30.08
2022-08-22T20:28:31.418Z,30.06
2022-08-22T20:31:02.352Z,30.04
2022-08-22T20:33:55.942Z,30.01
2022-08-22T20:36:28.921Z,30.05
2022-08-22T20:39:07.960Z,30.04
2022-08-22T20:41:44.767Z,30.02
2022-08-22T20:44:40.811Z,30.02
2022-08-22T20:47:19.402Z,30.05
2022-08-22T20:49:50.731Z,30.03
2022-08-22T20:52:21.677Z,30.01
2022-08-22T20:55:12.350Z,29.96
2022-08-22T20:57:49.172Z,29.96
2022-08-22T21:00:26.004Z,29.95
2022-08-22T21:02:53.871Z,29.94
2022-08-22T21:05:33.500Z,29.92
2022-08-22T21:08:06.062Z,29.91
2022-08-22T21:10:55.323Z,29.91
2022-08-22T21:13:28.985Z,29.90
2022-08-22T21:16:15.774Z,29.88
2022-08-22T21:18:46.509Z,29.88
2022-08-22T21:21:29.053Z,29.89
2022-08-22T21:24:06.653Z,29.87
2022-08-22T21:26:39.405Z,29.86
2022-08-22T21:29:18.377Z,29.84
2022-08-22T21:32:04.514Z,29.86
2022-08-22T21:34:42.450Z,29.87
2022-08-22T21:37:25.515Z,29.88
2022-08-22T21:40:02.149Z,29.87
2022-08-22T21:42:39.816Z,29.85
2022-08-22T21:45:13.782Z,29.83
2022-08-22T21:47:42.931Z,29.81
2022-08-22T21:50:25.663Z,29.80
2022-08-22T21:52:56.273Z,29.79
2022-08-22T21:55:29.154Z,29.76
2022-08-22T21:58:10.676Z,29.74
2022-08-22T22:00:54.517Z,29.74
2022-08-22T22:03:31.147Z,29.74
2022-08-22T22:06:01.173Z,29.73
2022-08-22T22:08:31.392Z,29.71
2022-08-22T22:11:02.594Z,29.70
2022-08-22T22:13:33.581Z,29.69
2022-08-22T22:16:01.366Z,29.69
2022-08-22T22:18:34.130Z,29.67
2022-08-22T22:21:02.082Z,29.67
2022-08-22T22:23:30.167Z,29.66
2022-08-22T22:26:00.894Z,29.64
2022-08-22T22:28:30.449Z,29.63
2022-08-22T22:30:58.867Z,29.62
2022-08-22T22:33:31.007Z,29.61
2022-08-22T22:36:04.499Z,29.60
2022-08-22T22:38:32.419Z,29.60
2022-08-22T22:41:00.188Z,29.60
2022-08-22T22:43:28.871Z,29.59
2022-08-22T22:45:56.943Z,29.59
2022-08-22T22:48:25.115Z,29.59
2022-08-22T22:50:54.093Z,29.57
2022-08-22T22:53:40.217Z,29.56
2022-08-22T22:56:14.220Z,29.60
2022-08-22T22:58:44.239Z,29.62
2022-08-22T23:01:15.728Z,29.61
2022-08-22T23:03:44.348Z,29.59
2022-08-22T23:06:18.267Z,29.57
2022-08-22T23:08:47.382Z,29.57
2022-08-22T23:11:19.006Z,29.55
2022-08-22T23:13:48.394Z,29.53
2022-08-22T23:16:24.037Z,29.53
2022-08-22T23:18:52.305Z,29.52
2022-08-22T23:21:23.399Z,29.52
2022-08-22T23:23:53.644Z,29.51
2022-08-22T23:26:21.424Z,29.50
2022-08-22T23:28:49.334Z,29.49
2022-08-22T23:31:38.930Z,29.47
2022-08-22T23:34:13.561Z,29.50
2022-08-22T23:36:45.519Z,29.53
2022-08-22T23:39:15.530Z,29.52
2022-08-22T23:41:43.551Z,29.51
2022-08-22T23:44:13.895Z,29.49
2022-08-22T23:46:42.774Z,29.47
2022-08-22T23:49:10.795Z,29.48
2022-08-22T23:51:38.954Z,29.48
2022-08-22T23:54:07.444Z,29.47
2022-08-22T23:56:38.250Z,29.47
2022-08-22T23:59:09.740Z,29.47
